sensor_id;sensor_type;location;lat;lon;timestamp;P1;durP1;ratioP1;P2;durP2;ratioP2
56425;SDS011;42330;43.620;3.856;2022-09-29T00:00:16;1.45;;;0.20;;
56425;SDS011;42330;43.620;3.856;2022-09-29T00:02:42;1.33;;;0.30;;
56425;SDS011;42330;43.620;3.856;2022-09-29T00:05:08;3.40;;;0.40;;
56425;SDS011;42330;43.620;3.856;2022-09-29T00:07:34;1.20;;;0.32;;
56425;SDS011;42330;43.620;3.856;2022-09-29T00:09:59;1.00;;;0.38;;
56425;SDS011;42330;43.620;3.856;2022-09-29T00:12:25;2.20;;;0.40;;
56425;SDS011;42330;43.620;3.856;2022-09-29T00:14:51;2.45;;;0.47;;
56425;SDS011;42330;43.620;3.856;2022-09-29T00:17:17;2.22;;;0.50;;
56425;SDS011;42330;43.620;3.856;2022-09-29T00:19:43;1.00;;;0.40;;
56425;SDS011;42330;43.620;3.856;2022-09-29T00:22:08;2.20;;;0.40;;
56425;SDS011;42330;43.620;3.856;2022-09-29T00:24:34;1.70;;;0.40;;
56425;SDS011;42330;43.620;3.856;2022-09-29T00:27:00;1.63;;;0.40;;
56425;SDS011;42330;43.620;3.856;2022-09-29T00:29:26;1.65;;;0.50;;
56425;SDS011;42330;43.620;3.856;2022-09-29T00:31:51;0.93;;;0.28;;
56425;SDS011;42330;43.620;3.856;2022-09-29T00:34:18;1.75;;;0.20;;
56425;SDS011;42330;43.620;3.856;2022-09-29T00:36:44;1.58;;;0.20;;
56425;SDS011;42330;43.620;3.856;2022-09-29T00:39:10;1.83;;;0.38;;
56425;SDS011;42330;43.620;3.856;2022-09-29T00:41:37;1.38;;;0.20;;
56425;SDS011;42330;43.620;3.856;2022-09-29T00:44:05;1.13;;;0.30;;
56425;SDS011;42330;43.620;3.856;2022-09-29T00:46:53;0.85;;;0.30;;
56425;SDS011;42330;43.620;3.856;2022-09-29T00:49:41;1.52;;;0.40;;
56425;SDS011;42330;43.620;3.856;2022-09-29T00:52:19;2.80;;;0.30;;
56425;SDS011;42330;43.620;3.856;2022-09-29T00:54:49;3.05;;;0.30;;
56425;SDS011;42330;43.620;3.856;2022-09-29T00:57:22;2.83;;;0.40;;
56425;SDS011;42330;43.620;3.856;2022-09-29T01:00:11;1.23;;;0.28;;
56425;SDS011;42330;43.620;3.856;2022-09-29T01:02:41;1.67;;;0.30;;
56425;SDS011;42330;43.620;3.856;2022-09-29T01:05:20;0.98;;;0.20;;
56425;SDS011;42330;43.620;3.856;2022-09-29T01:07:56;1.65;;;0.30;;
56425;SDS011;42330;43.620;3.856;2022-09-29T01:10:26;1.50;;;0.30;;
56425;SDS011;42330;43.620;3.856;2022-09-29T01:12:52;1.52;;;0.40;;
56425;SDS011;42330;43.620;3.856;2022-09-29T01:15:18;2.20;;;0.28;;
56425;SDS011;42330;43.620;3.856;2022-09-29T01:17:45;2.33;;;0.35;;
56425;SDS011;42330;43.620;3.856;2022-09-29T01:20:13;3.15;;;0.30;;
56425;SDS011;42330;43.620;3.856;2022-09-29T01:25:45;1.23;;;0.30;;
56425;SDS011;42330;43.620;3.856;2022-09-29T01:33:28;3.85;;;0.55;;
56425;SDS011;42330;43.620;3.856;2022-09-29T01:41:28;1.65;;;0.40;;
56425;SDS011;42330;43.620;3.856;2022-09-29T01:46:33;1.88;;;0.52;;
56425;SDS011;42330;43.620;3.856;2022-09-29T01:49:03;1.65;;;0.40;;
56425;SDS011;42330;43.620;3.856;2022-09-29T01:54:07;1.67;;;0.30;;
56425;SDS011;42330;43.620;3.856;2022-09-29T01:56:39;4.47;;;0.50;;
56425;SDS011;42330;43.620;3.856;2022-09-29T01:59:15;1.67;;;0.45;;
56425;SDS011;42330;43.620;3.856;2022-09-29T02:02:04;0.95;;;0.40;;
56425;SDS011;42330;43.620;3.856;2022-09-29T02:04:41;2.45;;;0.60;;
56425;SDS011;42330;43.620;3.856;2022-09-29T02:07:16;4.63;;;0.52;;
56425;SDS011;42330;43.620;3.856;2022-09-29T02:10:09;4.93;;;0.52;;
56425;SDS011;42330;43.620;3.856;2022-09-29T02:12:43;1.65;;;0.40;;
56425;SDS011;42330;43.620;3.856;2022-09-29T02:15:11;2.83;;;0.60;;
56425;SDS011;42330;43.620;3.856;2022-09-29T02:17:42;2.88;;;0.52;;
56425;SDS011;42330;43.620;3.856;2022-09-29T02:20:11;1.63;;;0.50;;
56425;SDS011;42330;43.620;3.856;2022-09-29T02:22:38;2.38;;;0.40;;
56425;SDS011;42330;43.620;3.856;2022-09-29T02:25:05;2.30;;;0.50;;
56425;SDS011;42330;43.620;3.856;2022-09-29T02:27:33;3.40;;;0.40;;
56425;SDS011;42330;43.620;3.856;2022-09-29T02:30:00;1.90;;;0.50;;
56425;SDS011;42330;43.620;3.856;2022-09-29T02:32:25;1.88;;;0.40;;
56425;SDS011;42330;43.620;3.856;2022-09-29T02:34:53;1.98;;;0.40;;
56425;SDS011;42330;43.620;3.856;2022-09-29T02:37:31;2.90;;;0.40;;
56425;SDS011;42330;43.620;3.856;2022-09-29T02:43:35;2.40;;;0.38;;
56425;SDS011;42330;43.620;3.856;2022-09-29T02:51:54;1.35;;;0.40;;
56425;SDS011;42330;43.620;3.856;2022-09-29T03:02:04;1.15;;;0.30;;
56425;SDS011;42330;43.620;3.856;2022-09-29T03:04:29;1.13;;;0.32;;
56425;SDS011;42330;43.620;3.856;2022-09-29T03:06:55;0.70;;;0.20;;
56425;SDS011;42330;43.620;3.856;2022-09-29T03:09:21;2.28;;;0.30;;
56425;SDS011;42330;43.620;3.856;2022-09-29T03:11:46;0.93;;;0.22;;
56425;SDS011;42330;43.620;3.856;2022-09-29T03:14:12;1.33;;;0.28;;
56425;SDS011;42330;43.620;3.856;2022-09-29T03:16:38;1.65;;;0.30;;
56425;SDS011;42330;43.620;3.856;2022-09-29T03:19:04;1.95;;;0.30;;
56425;SDS011;42330;43.620;3.856;2022-09-29T03:21:31;1.15;;;0.40;;
56425;SDS011;42330;43.620;3.856;2022-09-29T03:23:57;1.33;;;0.20;;
56425;SDS011;42330;43.620;3.856;2022-09-29T03:26:23;0.60;;;0.20;;
56425;SDS011;42330;43.620;3.856;2022-09-29T03:28:49;0.88;;;0.20;;
56425;SDS011;42330;43.620;3.856;2022-09-29T03:31:16;2.75;;;0.28;;
56425;SDS011;42330;43.620;3.856;2022-09-29T03:33:42;0.70;;;0.10;;
56425;SDS011;42330;43.620;3.856;2022-09-29T03:36:08;1.48;;;0.10;;
56425;SDS011;42330;43.620;3.856;2022-09-29T03:38:35;0.77;;;0.20;;
56425;SDS011;42330;43.620;3.856;2022-09-29T03:41:01;0.57;;;0.17;;
56425;SDS011;42330;43.620;3.856;2022-09-29T03:43:27;0.40;;;0.10;;
56425;SDS011;42330;43.620;3.856;2022-09-29T03:45:53;0.65;;;0.10;;
56425;SDS011;42330;43.620;3.856;2022-09-29T03:48:20;0.22;;;0.10;;
56425;SDS011;42330;43.620;3.856;2022-09-29T03:50:46;0.30;;;0.10;;
56425;SDS011;42330;43.620;3.856;2022-09-29T03:53:13;0.60;;;0.20;;
56425;SDS011;42330;43.620;3.856;2022-09-29T03:55:40;0.50;;;0.17;;
56425;SDS011;42330;43.620;3.856;2022-09-29T03:58:09;0.68;;;0.10;;
56425;SDS011;42330;43.620;3.856;2022-09-29T04:00:35;1.02;;;0.20;;
56425;SDS011;42330;43.620;3.856;2022-09-29T04:03:00;0.45;;;0.15;;
56425;SDS011;42330;43.620;3.856;2022-09-29T04:05:26;0.77;;;0.20;;
56425;SDS011;42330;43.620;3.856;2022-09-29T04:07:53;0.50;;;0.10;;
56425;SDS011;42330;43.620;3.856;2022-09-29T04:10:19;1.50;;;0.45;;
56425;SDS011;42330;43.620;3.856;2022-09-29T04:12:45;0.73;;;0.20;;
56425;SDS011;42330;43.620;3.856;2022-09-29T04:15:10;0.73;;;0.20;;
56425;SDS011;42330;43.620;3.856;2022-09-29T04:17:36;1.40;;;0.20;;
56425;SDS011;42330;43.620;3.856;2022-09-29T04:20:02;0.90;;;0.30;;
56425;SDS011;42330;43.620;3.856;2022-09-29T04:22:28;0.50;;;0.20;;
56425;SDS011;42330;43.620;3.856;2022-09-29T04:24:53;0.47;;;0.20;;
56425;SDS011;42330;43.620;3.856;2022-09-29T04:27:20;0.73;;;0.25;;
56425;SDS011;42330;43.620;3.856;2022-09-29T04:29:45;0.88;;;0.20;;
56425;SDS011;42330;43.620;3.856;2022-09-29T04:32:11;1.33;;;0.20;;
56425;SDS011;42330;43.620;3.856;2022-09-29T04:34:37;2.08;;;0.35;;
56425;SDS011;42330;43.620;3.856;2022-09-29T04:37:03;1.77;;;0.30;;
56425;SDS011;42330;43.620;3.856;2022-09-29T04:39:28;0.75;;;0.20;;
56425;SDS011;42330;43.620;3.856;2022-09-29T04:41:54;1.02;;;0.30;;
56425;SDS011;42330;43.620;3.856;2022-09-29T04:44:20;2.20;;;0.20;;
56425;SDS011;42330;43.620;3.856;2022-09-29T04:46:48;1.55;;;0.30;;
56425;SDS011;42330;43.620;3.856;2022-09-29T04:49:15;0.98;;;0.30;;
56425;SDS011;42330;43.620;3.856;2022-09-29T04:51:41;0.85;;;0.28;;
56425;SDS011;42330;43.620;3.856;2022-09-29T04:54:07;1.25;;;0.30;;
56425;SDS011;42330;43.620;3.856;2022-09-29T04:56:33;0.85;;;0.30;;
56425;SDS011;42330;43.620;3.856;2022-09-29T04:58:58;3.15;;;0.40;;
56425;SDS011;42330;43.620;3.856;2022-09-29T05:01:25;0.85;;;0.30;;
56425;SDS011;42330;43.620;3.856;2022-09-29T05:03:51;2.22;;;0.40;;
56425;SDS011;42330;43.620;3.856;2022-09-29T05:06:17;1.95;;;0.30;;
56425;SDS011;42330;43.620;3.856;2022-09-29T05:08:43;1.10;;;0.28;;
56425;SDS011;42330;43.620;3.856;2022-09-29T05:11:09;0.30;;;0.10;;
56425;SDS011;42330;43.620;3.856;2022-09-29T05:13:35;0.70;;;0.22;;
56425;SDS011;42330;43.620;3.856;2022-09-29T05:16:01;0.80;;;0.22;;
56425;SDS011;42330;43.620;3.856;2022-09-29T05:18:28;1.83;;;0.40;;
56425;SDS011;42330;43.620;3.856;2022-09-29T05:20:54;2.70;;;0.38;;
56425;SDS011;42330;43.620;3.856;2022-09-29T05:23:21;3.03;;;0.30;;
56425;SDS011;42330;43.620;3.856;2022-09-29T05:25:47;3.35;;;0.30;;
56425;SDS011;42330;43.620;3.856;2022-09-29T05:28:13;1.92;;;0.40;;
56425;SDS011;42330;43.620;3.856;2022-09-29T05:30:41;1.48;;;0.30;;
56425;SDS011;42330;43.620;3.856;2022-09-29T05:33:07;1.45;;;0.30;;
56425;SDS011;42330;43.620;3.856;2022-09-29T05:35:33;1.08;;;0.20;;
56425;SDS011;42330;43.620;3.856;2022-09-29T05:37:59;2.40;;;0.40;;
56425;SDS011;42330;43.620;3.856;2022-09-29T05:40:24;1.88;;;0.32;;
56425;SDS011;42330;43.620;3.856;2022-09-29T05:42:51;1.02;;;0.30;;
56425;SDS011;42330;43.620;3.856;2022-09-29T05:45:16;2.28;;;0.40;;
56425;SDS011;42330;43.620;3.856;2022-09-29T05:47:43;1.80;;;0.30;;
56425;SDS011;42330;43.620;3.856;2022-09-29T05:50:12;1.65;;;0.32;;
56425;SDS011;42330;43.620;3.856;2022-09-29T05:52:38;1.55;;;0.40;;
56425;SDS011;42330;43.620;3.856;2022-09-29T05:55:04;2.70;;;0.32;;
56425;SDS011;42330;43.620;3.856;2022-09-29T05:57:33;2.78;;;0.47;;
56425;SDS011;42330;43.620;3.856;2022-09-29T06:00:00;2.08;;;0.50;;
56425;SDS011;42330;43.620;3.856;2022-09-29T06:02:26;1.02;;;0.30;;
56425;SDS011;42330;43.620;3.856;2022-09-29T06:04:51;1.98;;;0.40;;
56425;SDS011;42330;43.620;3.856;2022-09-29T06:07:17;3.25;;;0.38;;
56425;SDS011;42330;43.620;3.856;2022-09-29T06:09:43;4.68;;;0.60;;
56425;SDS011;42330;43.620;3.856;2022-09-29T06:12:09;2.67;;;0.43;;
56425;SDS011;42330;43.620;3.856;2022-09-29T06:14:35;2.38;;;0.55;;
56425;SDS011;42330;43.620;3.856;2022-09-29T06:17:01;1.50;;;0.30;;
56425;SDS011;42330;43.620;3.856;2022-09-29T06:19:26;1.38;;;0.30;;
56425;SDS011;42330;43.620;3.856;2022-09-29T06:21:52;2.35;;;0.40;;
56425;SDS011;42330;43.620;3.856;2022-09-29T06:24:17;1.85;;;0.40;;
56425;SDS011;42330;43.620;3.856;2022-09-29T06:26:43;1.77;;;0.32;;
56425;SDS011;42330;43.620;3.856;2022-09-29T06:29:09;2.08;;;0.47;;
56425;SDS011;42330;43.620;3.856;2022-09-29T06:31:34;2.67;;;0.40;;
56425;SDS011;42330;43.620;3.856;2022-09-29T06:34:01;2.22;;;0.50;;
56425;SDS011;42330;43.620;3.856;2022-09-29T06:36:29;2.30;;;0.40;;
56425;SDS011;42330;43.620;3.856;2022-09-29T06:39:34;1.40;;;0.50;;
56425;SDS011;42330;43.620;3.856;2022-09-29T06:42:01;1.80;;;0.40;;
56425;SDS011;42330;43.620;3.856;2022-09-29T06:44:27;1.35;;;0.40;;
56425;SDS011;42330;43.620;3.856;2022-09-29T06:46:54;1.60;;;0.40;;
56425;SDS011;42330;43.620;3.856;2022-09-29T06:49:21;2.60;;;0.60;;
56425;SDS011;42330;43.620;3.856;2022-09-29T06:51:48;3.70;;;0.43;;
56425;SDS011;42330;43.620;3.856;2022-09-29T06:54:15;2.55;;;0.50;;
56425;SDS011;42330;43.620;3.856;2022-09-29T06:56:45;2.38;;;0.47;;
56425;SDS011;42330;43.620;3.856;2022-09-29T06:59:15;2.50;;;0.50;;
56425;SDS011;42330;43.620;3.856;2022-09-29T07:01:41;2.78;;;0.60;;
56425;SDS011;42330;43.620;3.856;2022-09-29T07:04:07;2.35;;;0.40;;
56425;SDS011;42330;43.620;3.856;2022-09-29T07:06:32;5.45;;;0.70;;
56425;SDS011;42330;43.620;3.856;2022-09-29T07:08:59;1.85;;;0.50;;
56425;SDS011;42330;43.620;3.856;2022-09-29T07:11:25;2.35;;;0.40;;
56425;SDS011;42330;43.620;3.856;2022-09-29T07:13:52;2.85;;;0.55;;
56425;SDS011;42330;43.620;3.856;2022-09-29T07:16:18;2.60;;;0.50;;
56425;SDS011;42330;43.620;3.856;2022-09-29T07:18:44;4.38;;;0.50;;
56425;SDS011;42330;43.620;3.856;2022-09-29T07:21:11;2.15;;;0.50;;
56425;SDS011;42330;43.620;3.856;2022-09-29T07:23:41;2.08;;;0.30;;
56425;SDS011;42330;43.620;3.856;2022-09-29T07:26:08;2.53;;;0.47;;
56425;SDS011;42330;43.620;3.856;2022-09-29T07:28:34;2.97;;;0.50;;
56425;SDS011;42330;43.620;3.856;2022-09-29T07:31:01;0.95;;;0.30;;
56425;SDS011;42330;43.620;3.856;2022-09-29T07:33:30;3.15;;;0.30;;
56425;SDS011;42330;43.620;3.856;2022-09-29T07:35:57;2.75;;;0.30;;
56425;SDS011;42330;43.620;3.856;2022-09-29T07:38:26;0.85;;;0.20;;
56425;SDS011;42330;43.620;3.856;2022-09-29T07:40:52;2.22;;;0.32;;
56425;SDS011;42330;43.620;3.856;2022-09-29T07:43:18;1.20;;;0.30;;
56425;SDS011;42330;43.620;3.856;2022-09-29T07:45:47;1.50;;;0.30;;
56425;SDS011;42330;43.620;3.856;2022-09-29T07:48:14;1.02;;;0.40;;
56425;SDS011;42330;43.620;3.856;2022-09-29T07:50:40;1.65;;;0.30;;
56425;SDS011;42330;43.620;3.856;2022-09-29T07:53:06;2.78;;;0.40;;
56425;SDS011;42330;43.620;3.856;2022-09-29T07:55:32;0.88;;;0.30;;
56425;SDS011;42330;43.620;3.856;2022-09-29T07:57:57;1.15;;;0.28;;
56425;SDS011;42330;43.620;3.856;2022-09-29T08:00:23;2.15;;;0.30;;
56425;SDS011;42330;43.620;3.856;2022-09-29T08:02:49;1.23;;;0.30;;
56425;SDS011;42330;43.620;3.856;2022-09-29T08:05:15;1.10;;;0.20;;
56425;SDS011;42330;43.620;3.856;2022-09-29T08:07:41;2.15;;;0.50;;
56425;SDS011;42330;43.620;3.856;2022-09-29T08:10:07;1.35;;;0.30;;
56425;SDS011;42330;43.620;3.856;2022-09-29T08:12:33;1.52;;;0.25;;
56425;SDS011;42330;43.620;3.856;2022-09-29T08:14:59;0.98;;;0.20;;
56425;SDS011;42330;43.620;3.856;2022-09-29T08:17:25;1.45;;;0.30;;
56425;SDS011;42330;43.620;3.856;2022-09-29T08:19:50;2.13;;;0.30;;
56425;SDS011;42330;43.620;3.856;2022-09-29T08:22:16;2.17;;;0.30;;
56425;SDS011;42330;43.620;3.856;2022-09-29T08:24:41;2.65;;;0.30;;
56425;SDS011;42330;43.620;3.856;2022-09-29T08:27:08;2.95;;;0.35;;
56425;SDS011;42330;43.620;3.856;2022-09-29T08:29:33;0.60;;;0.30;;
56425;SDS011;42330;43.620;3.856;2022-09-29T08:31:59;2.33;;;0.20;;
56425;SDS011;42330;43.620;3.856;2022-09-29T08:34:26;1.05;;;0.20;;
56425;SDS011;42330;43.620;3.856;2022-09-29T08:36:52;1.63;;;0.20;;
56425;SDS011;42330;43.620;3.856;2022-09-29T08:39:17;1.05;;;0.22;;
56425;SDS011;42330;43.620;3.856;2022-09-29T08:47:21;1.35;;;0.30;;
56425;SDS011;42330;43.620;3.856;2022-09-29T08:50:05;0.82;;;0.30;;
56425;SDS011;42330;43.620;3.856;2022-09-29T08:52:44;0.85;;;0.20;;
56425;SDS011;42330;43.620;3.856;2022-09-29T08:57:47;2.25;;;0.30;;
56425;SDS011;42330;43.620;3.856;2022-09-29T09:00:17;1.02;;;0.22;;
56425;SDS011;42330;43.620;3.856;2022-09-29T09:11:11;2.08;;;0.30;;
56425;SDS011;42330;43.620;3.856;2022-09-29T09:13:59;2.83;;;0.32;;
56425;SDS011;42330;43.620;3.856;2022-09-29T09:24:58;1.23;;;0.28;;
56425;SDS011;42330;43.620;3.856;2022-09-29T09:27:32;1.70;;;0.40;;
56425;SDS011;42330;43.620;3.856;2022-09-29T09:30:03;1.10;;;0.30;;
56425;SDS011;42330;43.620;3.856;2022-09-29T09:32:32;1.73;;;0.30;;
56425;SDS011;42330;43.620;3.856;2022-09-29T09:35:07;1.90;;;0.30;;
56425;SDS011;42330;43.620;3.856;2022-09-29T09:37:42;1.80;;;0.32;;
56425;SDS011;42330;43.620;3.856;2022-09-29T09:40:12;2.67;;;0.40;;
56425;SDS011;42330;43.620;3.856;2022-09-29T09:42:52;6.53;;;0.40;;
56425;SDS011;42330;43.620;3.856;2022-09-29T09:50:38;3.17;;;0.50;;
56425;SDS011;42330;43.620;3.856;2022-09-29T09:53:21;1.80;;;0.40;;
56425;SDS011;42330;43.620;3.856;2022-09-29T10:01:45;1.98;;;0.40;;
56425;SDS011;42330;43.620;3.856;2022-09-29T10:04:11;3.97;;;0.40;;
56425;SDS011;42330;43.620;3.856;2022-09-29T10:06:37;3.65;;;0.50;;
56425;SDS011;42330;43.620;3.856;2022-09-29T10:09:03;2.58;;;0.40;;
56425;SDS011;42330;43.620;3.856;2022-09-29T10:11:29;2.83;;;0.40;;
56425;SDS011;42330;43.620;3.856;2022-09-29T10:17:26;4.32;;;0.40;;
56425;SDS011;42330;43.620;3.856;2022-09-29T10:22:35;1.88;;;0.45;;
56425;SDS011;42330;43.620;3.856;2022-09-29T10:25:05;3.72;;;0.43;;
56425;SDS011;42330;43.620;3.856;2022-09-29T10:27:43;1.05;;;0.32;;
56425;SDS011;42330;43.620;3.856;2022-09-29T10:30:16;2.58;;;0.55;;
56425;SDS011;42330;43.620;3.856;2022-09-29T10:32:57;1.75;;;0.50;;
56425;SDS011;42330;43.620;3.856;2022-09-29T10:35:35;1.65;;;0.50;;
56425;SDS011;42330;43.620;3.856;2022-09-29T10:41:03;2.72;;;0.50;;
56425;SDS011;42330;43.620;3.856;2022-09-29T10:43:40;1.98;;;0.40;;
56425;SDS011;42330;43.620;3.856;2022-09-29T10:54:52;4.97;;;0.50;;
56425;SDS011;42330;43.620;3.856;2022-09-29T10:57:24;2.95;;;0.60;;
56425;SDS011;42330;43.620;3.856;2022-09-29T10:59:52;2.67;;;0.47;;
56425;SDS011;42330;43.620;3.856;2022-09-29T11:02:20;2.35;;;0.40;;
56425;SDS011;42330;43.620;3.856;2022-09-29T11:04:57;2.50;;;0.45;;
56425;SDS011;42330;43.620;3.856;2022-09-29T11:07:25;2.28;;;0.47;;
56425;SDS011;42330;43.620;3.856;2022-09-29T11:09:51;3.08;;;0.40;;
56425;SDS011;42330;43.620;3.856;2022-09-29T11:12:29;2.08;;;0.30;;
56425;SDS011;42330;43.620;3.856;2022-09-29T11:14:58;2.25;;;0.40;;
56425;SDS011;42330;43.620;3.856;2022-09-29T11:17:37;3.35;;;0.50;;
56425;SDS011;42330;43.620;3.856;2022-09-29T11:20:04;1.40;;;0.40;;
56425;SDS011;42330;43.620;3.856;2022-09-29T11:31:04;1.50;;;0.30;;
56425;SDS011;42330;43.620;3.856;2022-09-29T11:36:56;1.55;;;0.40;;
56425;SDS011;42330;43.620;3.856;2022-09-29T11:45:02;2.65;;;0.57;;
56425;SDS011;42330;43.620;3.856;2022-09-29T11:50:51;3.00;;;0.43;;
56425;SDS011;42330;43.620;3.856;2022-09-29T11:53:30;1.48;;;0.30;;
56425;SDS011;42330;43.620;3.856;2022-09-29T11:56:39;0.93;;;0.20;;
56425;SDS011;42330;43.620;3.856;2022-09-29T12:02:03;2.05;;;0.40;;
56425;SDS011;42330;43.620;3.856;2022-09-29T12:24:02;2.95;;;0.43;;
56425;SDS011;42330;43.620;3.856;2022-09-29T12:26:31;2.08;;;0.40;;
56425;SDS011;42330;43.620;3.856;2022-09-29T12:28:59;2.00;;;0.30;;
56425;SDS011;42330;43.620;3.856;2022-09-29T12:31:36;2.60;;;0.30;;
56425;SDS011;42330;43.620;3.856;2022-09-29T12:34:13;1.70;;;0.30;;
56425;SDS011;42330;43.620;3.856;2022-09-29T12:45:30;0.98;;;0.20;;
56425;SDS011;42330;43.620;3.856;2022-09-29T12:50:53;2.53;;;0.40;;
56425;SDS011;42330;43.620;3.856;2022-09-29T12:56:09;1.52;;;0.30;;
56425;SDS011;42330;43.620;3.856;2022-09-29T13:01:39;1.80;;;0.30;;
56425;SDS011;42330;43.620;3.856;2022-09-29T13:15:22;2.80;;;0.30;;
56425;SDS011;42330;43.620;3.856;2022-09-29T13:20:24;1.08;;;0.22;;
56425;SDS011;42330;43.620;3.856;2022-09-29T13:23:21;2.28;;;0.30;;
56425;SDS011;42330;43.620;3.856;2022-09-29T13:28:58;1.85;;;0.30;;
56425;SDS011;42330;43.620;3.856;2022-09-29T13:31:27;0.60;;;0.20;;
56425;SDS011;42330;43.620;3.856;2022-09-29T13:33:57;2.67;;;0.43;;
56425;SDS011;42330;43.620;3.856;2022-09-29T13:38:59;1.70;;;0.20;;
56425;SDS011;42330;43.620;3.856;2022-09-29T13:59:36;1.58;;;0.28;;
56425;SDS011;42330;43.620;3.856;2022-09-29T14:02:17;0.95;;;0.30;;
56425;SDS011;42330;43.620;3.856;2022-09-29T14:04:53;0.75;;;0.20;;
56425;SDS011;42330;43.620;3.856;2022-09-29T14:12:43;2.47;;;0.40;;
56425;SDS011;42330;43.620;3.856;2022-09-29T14:15:12;3.88;;;0.40;;
56425;SDS011;42330;43.620;3.856;2022-09-29T14:17:43;0.73;;;0.20;;
56425;SDS011;42330;43.620;3.856;2022-09-29T14:20:20;2.67;;;0.38;;
56425;SDS011;42330;43.620;3.856;2022-09-29T14:23:03;1.13;;;0.20;;
56425;SDS011;42330;43.620;3.856;2022-09-29T14:25:49;1.40;;;0.20;;
56425;SDS011;42330;43.620;3.856;2022-09-29T14:28:19;1.40;;;0.32;;
56425;SDS011;42330;43.620;3.856;2022-09-29T14:30:49;2.47;;;0.32;;
56425;SDS011;42330;43.620;3.856;2022-09-29T14:33:18;0.70;;;0.20;;
56425;SDS011;42330;43.620;3.856;2022-09-29T14:35:54;1.58;;;0.47;;
56425;SDS011;42330;43.620;3.856;2022-09-29T14:38:40;1.63;;;0.30;;
56425;SDS011;42330;43.620;3.856;2022-09-29T14:43:54;1.40;;;0.30;;
56425;SDS011;42330;43.620;3.856;2022-09-29T14:49:43;1.38;;;0.20;;
56425;SDS011;42330;43.620;3.856;2022-09-29T15:00:25;1.15;;;0.30;;
56425;SDS011;42330;43.620;3.856;2022-09-29T15:02:59;2.65;;;0.40;;
56425;SDS011;42330;43.620;3.856;2022-09-29T15:07:55;1.55;;;0.30;;
56425;SDS011;42330;43.620;3.856;2022-09-29T15:12:50;1.73;;;0.40;;
56425;SDS011;42330;43.620;3.856;2022-09-29T15:15:38;2.58;;;0.50;;
56425;SDS011;42330;43.620;3.856;2022-09-29T15:18:16;2.50;;;0.30;;
56425;SDS011;42330;43.620;3.856;2022-09-29T15:21:09;1.70;;;0.30;;
56425;SDS011;42330;43.620;3.856;2022-09-29T15:26:33;0.70;;;0.20;;
56425;SDS011;42330;43.620;3.856;2022-09-29T15:28:59;1.42;;;0.50;;
56425;SDS011;42330;43.620;3.856;2022-09-29T15:31:30;1.10;;;0.20;;
56425;SDS011;42330;43.620;3.856;2022-09-29T15:34:00;0.55;;;0.20;;
56425;SDS011;42330;43.620;3.856;2022-09-29T15:36:32;1.05;;;0.30;;
56425;SDS011;42330;43.620;3.856;2022-09-29T15:39:03;1.13;;;0.30;;
56425;SDS011;42330;43.620;3.856;2022-09-29T15:41:48;1.98;;;0.30;;
56425;SDS011;42330;43.620;3.856;2022-09-29T15:44:27;0.60;;;0.25;;
56425;SDS011;42330;43.620;3.856;2022-09-29T15:46:56;0.57;;;0.22;;
56425;SDS011;42330;43.620;3.856;2022-09-29T15:49:26;0.77;;;0.30;;
56425;SDS011;42330;43.620;3.856;2022-09-29T15:51:56;0.82;;;0.20;;
56425;SDS011;42330;43.620;3.856;2022-09-29T15:54:28;3.50;;;0.30;;
56425;SDS011;42330;43.620;3.856;2022-09-29T15:56:58;1.88;;;0.30;;
56425;SDS011;42330;43.620;3.856;2022-09-29T15:59:46;1.23;;;0.20;;
56425;SDS011;42330;43.620;3.856;2022-09-29T16:05:04;1.20;;;0.22;;
56425;SDS011;42330;43.620;3.856;2022-09-29T16:07:37;0.50;;;0.13;;
56425;SDS011;42330;43.620;3.856;2022-09-29T16:10:06;0.45;;;0.20;;
56425;SDS011;42330;43.620;3.856;2022-09-29T16:12:45;2.40;;;0.80;;
56425;SDS011;42330;43.620;3.856;2022-09-29T16:15:31;5.78;;;2.40;;
56425;SDS011;42330;43.620;3.856;2022-09-29T16:18:07;13.77;;;4.65;;
56425;SDS011;42330;43.620;3.856;2022-09-29T16:20:37;10.90;;;3.50;;
56425;SDS011;42330;43.620;3.856;2022-09-29T16:23:08;4.93;;;1.80;;
56425;SDS011;42330;43.620;3.856;2022-09-29T16:25:46;3.00;;;1.00;;
56425;SDS011;42330;43.620;3.856;2022-09-29T16:28:32;1.00;;;0.50;;
56425;SDS011;42330;43.620;3.856;2022-09-29T16:31:01;0.60;;;0.20;;
56425;SDS011;42330;43.620;3.856;2022-09-29T16:33:51;0.55;;;0.30;;
56425;SDS011;42330;43.620;3.856;2022-09-29T16:36:19;3.92;;;0.40;;
56425;SDS011;42330;43.620;3.856;2022-09-29T16:38:48;1.02;;;0.30;;
56425;SDS011;42330;43.620;3.856;2022-09-29T16:41:28;1.67;;;0.30;;
56425;SDS011;42330;43.620;3.856;2022-09-29T16:44:11;1.33;;;0.28;;
56425;SDS011;42330;43.620;3.856;2022-09-29T16:46:50;0.75;;;0.20;;
56425;SDS011;42330;43.620;3.856;2022-09-29T16:49:48;1.45;;;0.20;;
56425;SDS011;42330;43.620;3.856;2022-09-29T16:52:29;1.05;;;0.30;;
56425;SDS011;42330;43.620;3.856;2022-09-29T16:58:03;0.93;;;0.30;;
56425;SDS011;42330;43.620;3.856;2022-09-29T17:00:29;1.75;;;0.38;;
56425;SDS011;42330;43.620;3.856;2022-09-29T17:02:55;0.80;;;0.30;;
56425;SDS011;42330;43.620;3.856;2022-09-29T17:05:22;1.95;;;0.30;;
56425;SDS011;42330;43.620;3.856;2022-09-29T17:07:49;1.10;;;0.40;;
56425;SDS011;42330;43.620;3.856;2022-09-29T17:10:17;1.35;;;0.40;;
56425;SDS011;42330;43.620;3.856;2022-09-29T17:12:44;1.77;;;0.50;;
56425;SDS011;42330;43.620;3.856;2022-09-29T17:15:13;1.88;;;0.40;;
56425;SDS011;42330;43.620;3.856;2022-09-29T17:17:41;0.60;;;0.22;;
56425;SDS011;42330;43.620;3.856;2022-09-29T17:20:16;1.85;;;0.38;;
56425;SDS011;42330;43.620;3.856;2022-09-29T17:22:43;1.00;;;0.30;;
56425;SDS011;42330;43.620;3.856;2022-09-29T17:25:10;1.25;;;0.30;;
56425;SDS011;42330;43.620;3.856;2022-09-29T17:27:37;0.85;;;0.30;;
56425;SDS011;42330;43.620;3.856;2022-09-29T17:30:23;7.68;;;0.95;;
56425;SDS011;42330;43.620;3.856;2022-09-29T17:32:52;2.85;;;0.93;;
56425;SDS011;42330;43.620;3.856;2022-09-29T17:35:20;2.65;;;1.00;;
56425;SDS011;42330;43.620;3.856;2022-09-29T17:37:48;2.78;;;1.15;;
56425;SDS011;42330;43.620;3.856;2022-09-29T17:42:45;1.10;;;0.70;;
56425;SDS011;42330;43.620;3.856;2022-09-29T17:45:14;2.05;;;0.60;;
56425;SDS011;42330;43.620;3.856;2022-09-29T17:47:44;1.50;;;0.55;;
56425;SDS011;42330;43.620;3.856;2022-09-29T17:50:14;1.40;;;0.50;;
56425;SDS011;42330;43.620;3.856;2022-09-29T17:52:44;1.45;;;0.20;;
56425;SDS011;42330;43.620;3.856;2022-09-29T17:55:10;1.30;;;0.30;;
56425;SDS011;42330;43.620;3.856;2022-09-29T17:57:36;0.88;;;0.30;;
56425;SDS011;42330;43.620;3.856;2022-09-29T18:00:09;1.55;;;0.40;;
56425;SDS011;42330;43.620;3.856;2022-09-29T18:02:45;0.80;;;0.25;;
56425;SDS011;42330;43.620;3.856;2022-09-29T18:05:11;3.45;;;0.30;;
56425;SDS011;42330;43.620;3.856;2022-09-29T18:07:37;1.15;;;0.20;;
56425;SDS011;42330;43.620;3.856;2022-09-29T18:13:09;0.80;;;0.17;;
56425;SDS011;42330;43.620;3.856;2022-09-29T18:15:35;1.98;;;0.30;;
56425;SDS011;42330;43.620;3.856;2022-09-29T18:18:03;0.35;;;0.20;;
56425;SDS011;42330;43.620;3.856;2022-09-29T18:20:31;0.85;;;0.20;;
56425;SDS011;42330;43.620;3.856;2022-09-29T18:22:58;2.08;;;0.25;;
56425;SDS011;42330;43.620;3.856;2022-09-29T18:25:25;1.48;;;0.20;;
56425;SDS011;42330;43.620;3.856;2022-09-29T18:27:55;0.43;;;0.20;;
56425;SDS011;42330;43.620;3.856;2022-09-29T18:32:52;0.52;;;0.20;;
56425;SDS011;42330;43.620;3.856;2022-09-29T18:35:33;0.47;;;0.20;;
56425;SDS011;42330;43.620;3.856;2022-09-29T18:38:00;0.35;;;0.10;;
56425;SDS011;42330;43.620;3.856;2022-09-29T18:40:26;0.50;;;0.20;;
56425;SDS011;42330;43.620;3.856;2022-09-29T18:42:53;1.25;;;0.30;;
56425;SDS011;42330;43.620;3.856;2022-09-29T18:45:30;0.30;;;0.20;;
56425;SDS011;42330;43.620;3.856;2022-09-29T18:47:59;0.63;;;0.22;;
56425;SDS011;42330;43.620;3.856;2022-09-29T18:50:35;0.88;;;0.30;;
56425;SDS011;42330;43.620;3.856;2022-09-29T18:53:07;0.65;;;0.25;;